Time;durP1;ratioP1;P1;durP2;ratioP2;P2;SDS_P1;SDS_P2;PMS_P1;PMS_P2;Temp;Humidity;BMP_temperature;BMP_pressure;BME280_temperature;BME280_humidity;BME280_pressure;Samples;Min_cycle;Max_cycle;Signal;HPM_P1;HPM_P2
2023/01/24 00:01:26;;;;;;;22.90;16.00;;;7.50;99.90;;;;;;5049040;28;20500;-73
2023/01/24 00:04:30;;;;;;;26.08;18.33;;;7.40;99.90;;;;;;5049649;28;20504;-72
2023/01/24 00:07:34;;;;;;;29.40;19.42;;;8.00;99.90;;;;;;5049863;28;20542;-72
2023/01/24 00:10:39;;;;;;;32.28;21.27;;;7.50;99.90;;;;;;5049525;28;20120;-72
2023/01/24 00:13:43;;;;;;;31.67;21.90;;;7.60;99.90;;;;;;5049022;28;20048;-72
2023/01/24 00:16:46;;;;;;;36.25;24.58;;;7.30;99.90;;;;;;5048925;28;20519;-72
2023/01/24 00:19:50;;;;;;;46.70;31.55;;;8.90;99.90;;;;;;5049931;28;20036;-71
2023/01/24 00:22:54;;;;;;;41.10;26.95;;;8.40;99.90;;;;;;5049707;28;20055;-72
2023/01/24 00:25:58;;;;;;;43.53;28.90;;;7.40;99.90;;;;;;5052124;28;20036;-72
2023/01/24 00:29:02;;;;;;;43.28;30.08;;;8.70;99.90;;;;;;5053473;28;20397;-71
2023/01/24 00:32:06;;;;;;;46.72;27.95;;;7.50;99.90;;;;;;5053085;28;20044;-72
2023/01/24 00:35:11;;;;;;;38.60;24.95;;;7.70;99.90;;;;;;5052972;28;20368;-72
2023/01/24 00:38:14;;;;;;;43.90;27.38;;;8.90;99.90;;;;;;5053135;28;20040;-71
2023/01/24 00:41:19;;;;;;;40.33;26.35;;;;;;;;;;5052959;28;20036;-71
2023/01/24 00:44:23;;;;;;;40.28;26.45;;;7.60;99.90;;;;;;5052669;28;20523;-72
2023/01/24 00:47:27;;;;;;;41.10;25.65;;;7.20;99.90;;;;;;5052814;28;20048;-72
2023/01/24 00:50:31;;;;;;;38.17;26.27;;;7.10;99.90;;;;;;5052701;28;20040;-73
2023/01/24 00:53:35;;;;;;;38.25;25.30;;;7.90;99.90;;;;;;5051609;28;20044;-73
2023/01/24 00:56:39;;;;;;;43.75;27.02;;;;;;;;;;5052937;28;20496;-73
2023/01/24 00:59:43;;;;;;;35.10;24.83;;;9.60;99.90;;;;;;5052839;28;20052;-73
2023/01/24 01:02:50;;;;;;;39.67;26.95;;;7.00;99.90;;;;;;5040161;28;20040;-72
2023/01/24 01:05:59;;;;;;;39.20;28.20;;;8.70;99.90;;;;;;5052536;28;20063;-73
2023/01/24 01:09:03;;;;;;;39.88;27.13;;;7.60;99.90;;;;;;5052532;28;20051;-71
2023/01/24 01:12:07;;;;;;;37.53;27.38;;;;;;;;;;5051465;28;20050;-72
2023/01/24 01:15:11;;;;;;;56.28;36.80;;;7.60;99.90;;;;;;5051636;28;20393;-72
2023/01/24 01:18:15;;;;;;;47.60;32.90;;;;;;;;;;5051749;28;20040;-73
2023/01/24 01:21:22;;;;;;;52.28;31.33;;;4.70;99.90;;;;;;5051696;28;20052;-72
2023/01/24 01:24:25;;;;;;;42.75;29.45;;;7.50;99.90;;;;;;5051923;28;20044;-72
2023/01/24 01:27:29;;;;;;;39.45;29.23;;;7.40;99.90;;;;;;5051127;28;20060;-72
2023/01/24 01:30:33;;;;;;;37.28;27.63;;;6.50;99.90;;;;;;5052254;28;20094;-73
2023/01/24 01:33:37;;;;;;;41.70;27.77;;;;;;;;;;5039734;28;20055;-73
2023/01/24 01:36:41;;;;;;;41.72;27.30;;;6.30;99.90;;;;;;5051091;28;20131;-73
2023/01/24 01:39:45;;;;;;;38.10;26.33;;;7.50;99.90;;;;;;5051347;28;20040;-73
2023/01/24 01:42:54;;;;;;;38.50;26.50;;;7.50;99.90;;;;;;5050768;28;20404;-73
2023/01/24 01:46:05;;;;;;;40.50;26.50;;;8.50;99.90;;;;;;5051092;28;20064;-73
2023/01/24 01:49:16;;;;;;;35.33;26.48;;;;;;;;;;5051046;28;20048;-73
2023/01/24 01:52:22;;;;;;;35.85;25.23;;;;;;;;;;5051477;28;20071;-71
2023/01/24 01:55:29;;;;;;;39.47;24.75;;;;;;;;;;5050911;28;20424;-73
2023/01/24 01:58:34;;;;;;;32.38;24.02;;;7.30;99.90;;;;;;5050891;28;20044;-72
2023/01/24 02:01:38;;;;;;;35.20;22.85;;;7.40;99.90;;;;;;5051423;28;20392;-73
2023/01/24 02:04:48;;;;;;;33.30;22.02;;;6.50;99.90;;;;;;5051268;28;20492;-72
2023/01/24 02:07:57;;;;;;;28.13;19.50;;;10.60;99.90;;;;;;5038965;28;20052;-72
2023/01/24 02:17:50;;;;;;;25.98;17.60;;;7.50;99.90;;;;;;5038128;28;20055;-73
2023/01/24 02:20:55;;;;;;;20.52;14.73;;;5.40;99.90;;;;;;5049593;28;20060;-72
2023/01/24 02:24:29;;;;;;;19.60;12.77;;;;;;;;;;5050439;28;20040;-73
2023/01/24 02:27:33;;;;;;;18.63;13.40;;;7.70;99.90;;;;;;5024784;28;20512;-72
2023/01/24 02:30:38;;;;;;;18.35;13.25;;;7.90;99.90;;;;;;5049660;28;20044;-73
2023/01/24 02:33:44;;;;;;;20.92;13.48;;;;;;;;;;5049275;28;20040;-73
2023/01/24 02:36:58;;;;;;;21.10;14.27;;;7.60;99.90;;;;;;5050299;28;20043;-72
2023/01/24 02:40:07;;;;;;;20.52;13.00;;;7.20;99.90;;;;;;5049412;28;20142;-71
2023/01/24 02:43:14;;;;;;;19.55;12.63;;;7.70;99.90;;;;;;5048742;28;20048;-71
2023/01/24 02:46:18;;;;;;;16.35;11.85;;;8.30;99.90;;;;;;5049167;28;20052;-72
2023/01/24 02:49:23;;;;;;;18.48;12.90;;;8.10;99.90;;;;;;5048754;28;20048;-72
2023/01/24 02:59:23;;;;;;;12.88;8.77;;;7.90;99.90;;;;;;5012191;28;20048;-73
2023/01/24 03:02:28;;;;;;;14.20;9.27;;;9.60;99.90;;;;;;5048518;28;20041;-72
2023/01/24 03:08:55;;;;;;;17.13;11.88;;;;;;;;;;5049011;28;20508;-72
2023/01/24 03:11:37;;;;;;;15.95;12.23;;;5.10;99.90;;;;;;5067876;28;20390;-72
2023/01/24 03:35:02;;;;;;;20.17;13.82;;;;;;;;;;5066273;28;20036;-72
2023/01/24 03:41:32;;;;;;;18.92;13.68;;;;;;;;;;5066599;28;20041;-72
2023/01/24 03:44:36;;;;;;;17.75;13.60;;;;;;;;;;5066381;28;20059;-72
2023/01/24 03:47:41;;;;;;;21.02;13.95;;;;;;;;;;5054712;28;20040;-72
2023/01/24 03:54:12;;;;;;;22.27;13.75;;;6.40;99.90;;;;;;5066311;28;20048;-72
2023/01/24 03:57:48;;;;;;;19.65;13.38;;;;;;;;;;5067065;28;20054;-71
2023/01/24 04:00:53;;;;;;;19.27;13.30;;;7.50;99.90;;;;;;5065988;28;20041;-72
2023/01/24 04:04:16;;;;;;;18.48;13.48;;;;;;;;;;5065946;28;20044;-73
2023/01/24 04:07:21;;;;;;;23.95;14.98;;;7.90;99.90;;;;;;5054370;28;20385;-72
2023/01/24 04:10:25;;;;;;;21.45;14.55;;;6.80;99.90;;;;;;5065508;28;20056;-72
2023/01/24 04:13:30;;;;;;;20.98;14.18;;;6.90;99.90;;;;;;5065807;28;20059;-72
2023/01/24 04:16:35;;;;;;;18.65;12.48;;;8.00;99.90;;;;;;5065596;28;20044;-72
2023/01/24 04:19:51;;;;;;;19.58;11.32;;;6.40;99.90;;;;;;5055889;28;20040;-72
2023/01/24 04:22:55;;;;;;;16.48;10.15;;;6.80;99.90;;;;;;5052432;28;20052;-71
2023/01/24 04:26:01;;;;;;;16.00;9.20;;;7.90;99.90;;;;;;5052402;28;20036;-71
2023/01/24 04:29:07;;;;;;;15.07;8.98;;;7.00;99.90;;;;;;5052479;28;20036;-74
2023/01/24 04:32:13;;;;;;;15.00;9.13;;;;;;;;;;5052438;28;20092;-71
2023/01/24 04:35:29;;;;;;;14.68;10.02;;;;;;;;;;5052304;28;20033;-72
2023/01/24 04:38:34;;;;;;;15.30;10.10;;;7.40;99.90;;;;;;5052968;28;20029;-73
2023/01/24 04:41:53;;;;;;;15.40;11.35;;;7.50;99.90;;;;;;5052210;28;20048;-72
2023/01/24 04:44:57;;;;;;;15.57;10.75;;;;;;;;;;5052032;28;20048;-72
2023/01/24 04:48:01;;;;;;;14.38;9.63;;;;;;;;;;5051935;28;20533;-72
2023/01/24 04:51:05;;;;;;;18.42;11.95;;;7.70;99.90;;;;;;5051720;28;20045;-71
2023/01/24 04:54:11;;;;;;;16.02;11.20;;;;;;;;;;5051736;28;20445;-73
2023/01/24 04:57:15;;;;;;;19.33;11.07;;;;;;;;;;5051975;28;20512;-73
2023/01/24 05:00:21;;;;;;;14.75;10.13;;;7.40;99.90;;;;;;5051986;28;20039;-71
2023/01/24 05:03:27;;;;;;;16.88;10.88;;;;;;;;;;5051536;28;20532;-71
2023/01/24 05:06:32;;;;;;;22.50;12.45;;;8.80;99.90;;;;;;5052594;28;20040;-72
2023/01/24 05:09:37;;;;;;;21.02;13.52;;;7.20;99.90;;;;;;5039667;28;20063;-72
2023/01/24 05:12:44;;;;;;;20.42;13.00;;;7.10;99.90;;;;;;5051577;28;20047;-72
2023/01/24 05:15:54;;;;;;;20.83;13.82;;;;;;;;;;5051465;28;20049;-72
2023/01/24 05:19:00;;;;;;;21.30;14.70;;;;;;;;;;5051646;28;20040;-72
2023/01/24 05:22:05;;;;;;;25.20;15.38;;;;;;;;;;5051182;28;20391;-72
2023/01/24 05:25:15;;;;;;;21.67;13.85;;;;;;;;;;5051827;28;20045;-72
2023/01/24 05:28:19;;;;;;;18.88;13.45;;;;;;;;;;5051692;28;20040;-73
2023/01/24 05:31:26;;;;;;;16.80;12.95;;;;;;;;;;5051127;28;20041;-72
2023/01/24 05:34:30;;;;;;;21.58;14.18;;;7.80;99.90;;;;;;5050066;28;20372;-72
2023/01/24 05:37:38;;;;;;;21.50;14.43;;;7.10;99.90;;;;;;5051115;28;20047;-71
2023/01/24 05:40:46;;;;;;;21.88;15.32;;;5.50;99.90;;;;;;5051080;28;20040;-72
2023/01/24 05:43:50;;;;;;;22.25;14.55;;;;;;;;;;5051552;28;20047;-72
2023/01/24 05:46:58;;;;;;;19.88;13.95;;;;;;;;;;5050996;28;20035;-72
2023/01/24 05:50:09;;;;;;;17.00;12.90;;;;;;;;;;5050874;28;20509;-72
2023/01/24 05:53:13;;;;;;;21.17;13.93;;;;;;;;;;5050676;28;20037;-72
2023/01/24 05:56:19;;;;;;;17.45;13.02;;;7.20;99.90;;;;;;5050879;28;20050;-72
2023/01/24 05:59:24;;;;;;;19.45;13.57;;;7.80;99.90;;;;;;5050813;28;20059;-71
2023/01/24 06:02:29;;;;;;;17.42;12.02;;;8.10;99.90;;;;;;5039620;28;20516;-72
2023/01/24 06:05:34;;;;;;;20.67;13.20;;;;;;;;;;5050885;28;20044;-73
2023/01/24 06:08:39;;;;;;;19.85;13.20;;;7.90;99.90;;;;;;5051144;28;20040;-72
2023/01/24 06:11:45;;;;;;;21.15;14.57;;;;;;;;;;5028101;28;20060;-73
2023/01/24 06:14:56;;;;;;;18.58;12.93;;;;;;;;;;5040452;28;20051;-73
2023/01/24 06:18:00;;;;;;;18.70;13.38;;;6.70;99.90;;;;;;5050900;28;20044;-73
2023/01/24 06:21:14;;;;;;;20.65;13.45;;;6.90;99.90;;;;;;5039229;28;20040;-73
2023/01/24 06:24:26;;;;;;;17.38;13.25;;;8.50;99.90;;;;;;5051193;28;20532;-72
2023/01/24 06:27:40;;;;;;;16.38;12.73;;;7.80;99.90;;;;;;5050549;28;20047;-73
2023/01/24 06:30:50;;;;;;;20.95;14.93;;;6.10;99.90;;;;;;5050554;28;20056;-72
2023/01/24 06:34:36;;;;;;;20.52;13.98;;;7.20;99.90;;;;;;5051524;28;20048;-72
2023/01/24 06:37:46;;;;;;;22.15;13.48;;;5.50;99.90;;;;;;5050931;28;20067;-69
2023/01/24 06:40:56;;;;;;;20.83;14.02;;;7.30;99.90;;;;;;5051035;28;20044;-71
2023/01/24 06:44:00;;;;;;;22.10;15.73;;;7.30;99.90;;;;;;5050773;28;20052;-72
2023/01/24 06:47:10;;;;;;;20.65;14.07;;;7.90;99.90;;;;;;5050262;28;20507;-71
2023/01/24 06:50:17;;;;;;;20.83;13.95;;;8.70;99.90;;;;;;5050899;28;20059;-73
2023/01/24 06:53:22;;;;;;;19.83;13.55;;;6.70;99.90;;;;;;5050772;28;20052;-72
2023/01/24 06:56:26;;;;;;;16.20;11.45;;;7.80;99.90;;;;;;5050749;28;20646;-71
2023/01/24 06:59:29;;;;;;;16.08;11.50;;;7.40;99.90;;;;;;5049985;28;20056;-72
2023/01/24 07:02:33;;;;;;;17.08;10.73;;;8.00;99.90;;;;;;5050316;28;20040;-73
2023/01/24 07:05:39;;;;;;;14.75;10.43;;;7.20;99.90;;;;;;5050897;28;20051;-70
2023/01/24 07:08:43;;;;;;;17.60;9.45;;;;;;;;;;5050876;28;20508;-72
2023/01/24 07:11:54;;;;;;;12.57;8.82;;;7.50;99.90;;;;;;5050591;28;20386;-72
2023/01/24 07:14:59;;;;;;;;;;;;;;;;;;5051220;28;20040;-71
2023/01/24 07:18:07;;;;;;;14.43;9.25;;;7.60;99.90;;;;;;5050783;28;19928;-73
2023/01/24 07:21:12;;;;;;;15.52;8.73;;;7.60;99.90;;;;;;5050543;28;20052;-71
2023/01/24 07:24:21;;;;;;;11.43;8.52;;;7.70;99.90;;;;;;5049510;28;20050;-75
2023/01/24 07:27:25;;;;;;;12.90;8.73;;;9.00;99.90;;;;;;5050330;28;20045;-72
2023/01/24 07:30:29;;;;;;;15.65;8.40;;;8.20;99.90;;;;;;5050229;28;20275;-70
2023/01/24 07:33:33;;;;;;;12.18;8.90;;;7.80;99.90;;;;;;5049663;28;20504;-69
2023/01/24 07:36:37;;;;;;;12.80;9.27;;;6.90;99.90;;;;;;5050082;28;20037;-70
2023/01/24 07:39:42;;;;;;;11.18;8.48;;;;;;;;;;5050559;28;20055;-70
2023/01/24 07:42:46;;;;;;;13.35;9.10;;;10.00;99.90;;;;;;5050565;28;20041;-70
2023/01/24 07:45:50;;;;;;;15.65;10.45;;;8.40;99.90;;;;;;5050251;28;20044;-69
2023/01/24 07:48:54;;;;;;;16.08;11.23;;;8.50;99.90;;;;;;5050544;28;20517;-71
2023/01/24 07:51:58;;;;;;;15.98;9.93;;;8.40;99.90;;;;;;5049739;28;20048;-68
2023/01/24 07:55:02;;;;;;;15.38;9.57;;;8.70;99.90;;;;;;5050217;28;20045;-69
2023/01/24 07:58:05;;;;;;;17.35;9.93;;;8.60;99.90;;;;;;5053382;28;20044;-69
2023/01/24 08:01:15;;;;;;;16.42;9.90;;;8.30;99.90;;;;;;5054025;28;20048;-68
2023/01/24 08:04:19;;;;;;;13.80;9.82;;;9.00;99.90;;;;;;5054134;28;20041;-69
2023/01/24 08:07:23;;;;;;;15.35;10.50;;;8.00;99.90;;;;;;5054171;28;20370;-71
2023/01/24 08:10:29;;;;;;;16.73;11.75;;;8.70;99.90;;;;;;5053539;28;20052;-69
2023/01/24 08:13:33;;;;;;;18.00;11.52;;;;;;;;;;5053515;28;20052;-70
2023/01/24 08:16:37;;;;;;;16.83;11.05;;;;;;;;;;5053897;28;20036;-71
2023/01/24 08:19:41;;;;;;;20.23;11.82;;;9.40;99.90;;;;;;5053391;28;20052;-69
2023/01/24 08:22:45;;;;;;;15.70;11.57;;;9.70;99.90;;;;;;5053598;28;20044;-68
2023/01/24 08:25:50;;;;;;;21.02;12.25;;;;;;;;;;5053702;28;20055;-68
2023/01/24 08:28:54;;;;;;;20.35;11.10;;;;;;;;;;5053693;28;20036;-68
2023/01/24 08:31:58;;;;;;;14.20;8.73;;;10.70;99.90;;;;;;5053047;28;20057;-68
2023/01/24 08:35:05;;;;;;;12.05;8.65;;;10.90;99.90;;;;;;5053416;28;20048;-68
2023/01/24 08:38:09;;;;;;;7.80;6.72;;;11.00;99.90;;;;;;5053030;28;20047;-71
2023/01/24 08:41:13;;;;;;;11.18;6.25;;;11.40;99.90;;;;;;5053195;28;20044;-70
2023/01/24 08:44:17;;;;;;;6.25;4.45;;;11.50;99.90;;;;;;5053045;28;20519;-70
2023/01/24 08:47:21;;;;;;;8.18;4.75;;;11.60;99.90;;;;;;5053029;28;20108;-68
2023/01/24 08:50:25;;;;;;;6.05;3.85;;;11.80;99.90;;;;;;5053002;28;20045;-69
2023/01/24 08:53:29;;;;;;;9.73;4.63;;;12.00;99.90;;;;;;5052907;28;20045;-67
2023/01/24 08:56:34;;;;;;;9.02;5.28;;;12.10;99.90;;;;;;5052805;28;20044;-68
2023/01/24 08:59:38;;;;;;;5.43;4.03;;;12.20;99.90;;;;;;5053013;28;20037;-70
2023/01/24 09:02:42;;;;;;;7.45;4.10;;;12.20;99.90;;;;;;5052724;28;20057;-70
2023/01/24 09:05:46;;;;;;;4.25;3.17;;;;;;;;;;5052846;28;20033;-69
2023/01/24 09:08:53;;;;;;;6.00;3.70;;;12.40;99.90;;;;;;5052652;28;20045;-69
2023/01/24 09:11:57;;;;;;;5.07;3.47;;;;;;;;;;5052581;28;20045;-69
2023/01/24 09:15:01;;;;;;;7.85;4.70;;;;;;;;;;5052772;28;20029;-69
2023/01/24 09:18:08;;;;;;;7.95;3.38;;;;;;;;;;5052546;28;20477;-69
2023/01/24 09:21:12;;;;;;;6.15;3.58;;;12.10;98.50;;;;;;5052409;28;20044;-69
2023/01/24 09:24:16;;;;;;;8.95;2.92;;;15.90;99.60;;;;;;5052511;28;20394;-69
2023/01/24 09:27:20;;;;;;;3.53;2.08;;;;;;;;;;5052668;28;20045;-69
2023/01/24 09:30:24;;;;;;;2.85;2.08;;;;;;;;;;5052283;28;20037;-69
2023/01/24 09:33:29;;;;;;;5.85;3.40;;;11.00;97.00;;;;;;5052254;28;20041;-70
2023/01/24 09:36:33;;;;;;;4.72;2.50;;;13.30;97.20;;;;;;5052128;28;20530;-69
2023/01/24 09:39:37;;;;;;;9.07;2.50;;;13.80;97.00;;;;;;5052398;28;20045;-69
2023/01/24 09:42:48;;;;;;;6.60;2.22;;;13.90;96.60;;;;;;5051998;28;20036;-68
2023/01/24 09:46:04;;;;;;;6.47;2.20;;;13.90;95.70;;;;;;5051405;28;20037;-69
2023/01/24 09:49:23;;;;;;;3.47;2.20;;;14.00;94.50;;;;;;5052128;28;20040;-69
2023/01/24 09:52:47;;;;;;;4.03;1.90;;;14.30;94.00;;;;;;5051953;28;20069;-69
2023/01/24 09:55:52;;;;;;;4.00;2.38;;;;;;;;;;5051924;28;20044;-68
2023/01/24 09:59:43;;;;;;;7.15;2.42;;;14.50;93.50;;;;;;5051960;28;20045;-69
2023/01/24 10:02:47;;;;;;;9.15;2.95;;;;;;;;;;5051585;28;20041;-69
2023/01/24 10:05:55;;;;;;;18.45;2.70;;;14.90;93.20;;;;;;5051447;28;20037;-70
2023/01/24 10:08:59;;;;;;;9.13;2.60;;;;;;;;;;5051802;28;20048;-69
2023/01/24 10:12:55;;;;;;;4.43;3.30;;;14.80;91.90;;;;;;5051454;28;20041;-69
2023/01/24 10:16:35;;;;;;;6.55;2.65;;;16.20;92.40;;;;;;5049974;28;20048;-69
2023/01/24 10:20:11;;;;;;;9.68;2.97;;;14.90;91.30;;;;;;5050854;28;20505;-69
2023/01/24 10:23:25;;;;;;;4.38;2.60;;;15.00;91.40;;;;;;5046050;28;20036;-67
2023/01/24 10:26:59;;;;;;;3.10;2.15;;;17.50;90.40;;;;;;5051294;28;20041;-71
2023/01/24 10:30:22;;;;;;;4.60;1.70;;;15.30;89.30;;;;;;5051216;28;20045;-68
2023/01/24 10:33:36;;;;;;;4.03;1.40;;;14.40;88.70;;;;;;5051094;28;20382;-69
2023/01/24 10:36:50;;;;;;;2.25;1.40;;;15.30;87.80;;;;;;5051402;28;20501;-69
2023/01/24 10:39:54;;;;;;;2.05;1.60;;;15.40;86.90;;;;;;5051066;28;20076;-69
2023/01/24 10:43:06;;;;;;;2.78;1.77;;;15.20;86.50;;;;;;5051048;28;20040;-71
2023/01/24 10:46:33;;;;;;;5.03;2.15;;;15.30;87.40;;;;;;5050346;28;20048;-69
2023/01/24 10:49:41;;;;;;;3.20;1.60;;;15.40;87.80;;;;;;5050722;28;20033;-70
2023/01/24 10:52:49;;;;;;;2.70;2.15;;;15.40;87.20;;;;;;5050223;28;20049;-69
2023/01/24 10:55:59;;;;;;;3.13;1.90;;;15.40;89.00;;;;;;5050699;28;20033;-69
2023/01/24 10:59:04;;;;;;;6.65;2.22;;;15.60;87.30;;;;;;5050862;28;20045;-69
2023/01/24 11:02:23;;;;;;;4.20;2.10;;;15.50;86.90;;;;;;5051199;28;20037;-70
2023/01/24 11:05:43;;;;;;;3.80;2.10;;;16.50;86.70;;;;;;5050878;28;20036;-69
2023/01/24 11:09:01;;;;;;;2.58;1.35;;;14.10;85.10;;;;;;5051249;28;20052;-70
2023/01/24 11:12:12;;;;;;;2.97;1.42;;;15.70;86.40;;;;;;5050732;28;20045;-71
2023/01/24 11:15:19;;;;;;;;;;;15.80;86.00;;;;;;5051154;28;20040;-69
2023/01/24 11:18:29;;;;;;;5.90;3.45;;;15.70;84.70;;;;;;5051146;28;19915;-70
2023/01/24 11:21:52;;;;;;;4.45;1.92;;;15.70;84.40;;;;;;5050572;28;20052;-70
2023/01/24 11:24:59;;;;;;;2.40;1.38;;;15.60;84.80;;;;;;5051313;28;20044;-70
2023/01/24 11:28:03;;;;;;;4.68;1.60;;;15.60;84.30;;;;;;5050577;28;20048;-70
2023/01/24 11:31:26;;;;;;;3.10;1.58;;;15.60;83.30;;;;;;5050707;28;20404;-70
2023/01/24 11:34:49;;;;;;;2.97;1.40;;;15.60;83.60;;;;;;5054750;28;20069;-70
2023/01/24 11:38:24;;;;;;;5.53;1.77;;;15.60;83.20;;;;;;5054527;28;20400;-71
2023/01/24 11:41:35;;;;;;;6.20;1.88;;;15.50;84.60;;;;;;5054643;28;20041;-69
2023/01/24 11:44:42;;;;;;;4.00;1.58;;;15.50;85.20;;;;;;5054590;28;20054;-69
2023/01/24 11:48:03;;;;;;;3.67;1.60;;;15.40;85.30;;;;;;5054440;28;20045;-70
2023/01/24 11:51:23;;;;;;;6.32;1.75;;;15.40;84.90;;;;;;5054156;28;20037;-68
2023/01/24 11:54:33;;;;;;;4.55;2.67;;;15.40;85.00;;;;;;5054294;28;20044;-69
2023/01/24 11:58:00;;;;;;;5.43;2.10;;;15.30;85.50;;;;;;5054121;28;20056;-67
2023/01/24 12:01:08;;;;;;;3.22;1.83;;;15.30;86.10;;;;;;5053561;28;20380;-70
2023/01/24 12:04:29;;;;;;;4.20;1.80;;;15.30;85.30;;;;;;5053679;28;20044;-70
2023/01/24 12:07:37;;;;;;;;;;;15.30;85.90;;;;;;5054732;28;20036;-72
2023/01/24 12:10:55;;;;;;;5.05;2.47;;;15.10;85.30;;;;;;5053762;28;19931;-71
2023/01/24 12:14:15;;;;;;;4.03;2.38;;;15.00;85.00;;;;;;5053301;28;20404;-71
2023/01/24 12:17:21;;;;;;;5.20;2.50;;;15.00;85.60;;;;;;5053888;28;20041;-71
2023/01/24 12:20:55;;;;;;;9.07;3.17;;;15.00;88.00;;;;;;5053722;28;20044;-71
2023/01/24 12:24:01;;;;;;;4.63;2.85;;;14.90;89.20;;;;;;5053572;28;20054;-70
2023/01/24 12:27:17;;;;;;;5.72;3.20;;;14.90;89.70;;;;;;5053755;28;20036;-71
2023/01/24 12:30:51;;;;;;;3.80;2.28;;;14.90;87.70;;;;;;5053990;28;20047;-70
2023/01/24 12:34:20;;;;;;;3.05;1.80;;;14.80;88.30;;;;;;5053376;28;20052;-72
2023/01/24 12:38:11;;;;;;;7.68;2.33;;;14.80;88.60;;;;;;5053448;28;20033;-70
2023/01/24 12:41:24;;;;;;;3.97;2.47;;;14.80;88.00;;;;;;5051599;28;20396;-72
2023/01/24 12:44:32;;;;;;;4.95;2.22;;;14.80;88.10;;;;;;5053698;28;20389;-72
2023/01/24 12:47:45;;;;;;;3.63;2.28;;;14.70;88.00;;;;;;5053547;28;20044;-71
2023/01/24 12:50:56;;;;;;;10.15;2.55;;;14.90;88.60;;;;;;5052729;28;20052;-71
2023/01/24 12:54:11;;;;;;;3.28;1.80;;;14.80;87.90;;;;;;5053105;28;20060;-71
2023/01/24 12:57:31;;;;;;;2.95;1.98;;;14.70;88.20;;;;;;5053030;28;20616;-71
2023/01/24 13:00:57;;;;;;;4.05;2.13;;;14.70;88.70;;;;;;5053375;28;20397;-69
2023/01/24 13:04:15;;;;;;;3.95;1.75;;;14.60;85.50;;;;;;5053122;28;20517;-71
2023/01/24 13:07:35;;;;;;;5.32;2.72;;;14.60;86.80;;;;;;5053202;28;20388;-73
2023/01/24 13:10:52;;;;;;;4.97;1.88;;;14.60;87.90;;;;;;5052896;28;20063;-71
2023/01/24 13:14:05;;;;;;;5.03;2.35;;;14.60;88.30;;;;;;5052407;28;20040;-71
2023/01/24 13:17:31;;;;;;;3.05;2.08;;;14.60;88.70;;;;;;5050504;28;20445;-70
2023/01/24 13:21:01;;;;;;;5.63;2.70;;;14.80;89.40;;;;;;5052843;28;20041;-71
2023/01/24 13:24:33;;;;;;;5.93;2.53;;;14.60;89.00;;;;;;5052730;28;20044;-71
2023/01/24 13:27:55;;;;;;;5.03;3.28;;;14.50;87.40;;;;;;5052574;28;20028;-71
2023/01/24 13:31:21;;;;;;;3.75;2.72;;;14.50;87.90;;;;;;5052321;28;20053;-71
2023/01/24 13:34:33;;;;;;;8.07;3.05;;;14.60;88.80;;;;;;5052512;28;20052;-70
2023/01/24 13:37:37;;;;;;;;;;;14.50;89.20;;;;;;5053068;28;20040;-71
2023/01/24 13:41:15;;;;;;;5.97;2.72;;;14.40;89.10;;;;;;5052145;28;19916;-71
2023/01/24 13:44:33;;;;;;;9.02;2.83;;;14.40;88.80;;;;;;5051762;28;20049;-70
2023/01/24 13:47:37;;;;;;;7.10;2.70;;;14.20;88.40;;;;;;5052055;28;20396;-71
2023/01/24 13:50:42;;;;;;;3.15;1.90;;;14.30;83.40;;;;;;5052114;28;20420;-72
2023/01/24 13:54:02;;;;;;;2.13;1.58;;;14.30;80.70;;;;;;5051597;28;20045;-72
2023/01/24 13:57:26;;;;;;;4.35;1.58;;;14.20;79.70;;;;;;5052331;28;20501;-73
2023/01/24 14:00:30;;;;;;;9.30;2.17;;;14.20;80.50;;;;;;5051470;28;20045;-71
2023/01/24 14:03:38;;;;;;;3.42;2.10;;;14.10;81.20;;;;;;5052109;28;20062;-72
2023/01/24 14:06:44;;;;;;;8.15;2.92;;;16.30;83.10;;;;;;5051402;28;20037;-71
2023/01/24 14:09:56;;;;;;;5.90;3.20;;;11.70;81.30;;;;;;5051308;28;20049;-73
2023/01/24 14:13:00;;;;;;;;;;;14.00;81.90;;;;;;5051918;28;20059;-72
2023/01/24 14:16:04;;;;;;;6.07;3.17;;;;;;;;;;5050790;28;19923;-71
2023/01/24 14:19:14;;;;;;;5.88;3.05;;;;;;;;;;5051571;28;20045;-71
2023/01/24 14:22:28;;;;;;;9.38;4.20;;;14.50;83.70;;;;;;5051746;28;20033;-71
2023/01/24 14:25:50;;;;;;;5.78;3.45;;;13.20;82.80;;;;;;5051602;28;20037;-72
2023/01/24 14:29:01;;;;;;;5.78;3.10;;;13.80;82.00;;;;;;5051481;28;20041;-72
2023/01/24 14:32:25;;;;;;;5.90;3.42;;;12.50;82.60;;;;;;5050954;28;20073;-71
2023/01/24 14:36:01;;;;;;;10.48;4.32;;;13.80;82.30;;;;;;5050959;28;20041;-71
2023/01/24 14:39:22;;;;;;;6.03;3.15;;;12.50;81.40;;;;;;5051391;28;20488;-72
2023/01/24 14:42:27;;;;;;;5.72;3.10;;;13.70;82.70;;;;;;5050363;28;20053;-71
2023/01/24 14:45:33;;;;;;;7.90;4.07;;;13.10;83.80;;;;;;5050279;28;20037;-71
2023/01/24 14:48:37;;;;;;;5.65;3.55;;;;;;;;;;5051329;28;20045;-70
2023/01/24 14:51:45;;;;;;;7.32;3.53;;;12.50;83.50;;;;;;5049033;28;20496;-70
2023/01/24 14:54:53;;;;;;;7.82;4.50;;;13.60;85.00;;;;;;5049338;28;20044;-70
2023/01/24 14:58:18;;;;;;;8.23;3.90;;;13.50;85.50;;;;;;5049121;28;20044;-70
2023/01/24 15:01:34;;;;;;;8.10;5.20;;;13.40;86.10;;;;;;5049348;28;20525;-68
2023/01/24 15:04:44;;;;;;;7.55;4.25;;;10.90;84.80;;;;;;5050183;28;20453;-68
2023/01/24 15:07:49;;;;;;;5.10;3.23;;;;;;;;;;5050621;28;20381;-68
2023/01/24 15:10:55;;;;;;;7.60;4.68;;;;;;;;;;5050366;28;20045;-69
2023/01/24 15:14:13;;;;;;;7.88;4.85;;;13.40;87.10;;;;;;5050729;28;20049;-68
2023/01/24 15:17:25;;;;;;;10.80;5.72;;;12.40;87.60;;;;;;5050945;28;20044;-67
2023/01/24 15:20:30;;;;;;;10.73;5.22;;;13.40;88.50;;;;;;5050800;28;20048;-66
2023/01/24 15:23:35;;;;;;;9.88;6.50;;;13.20;88.20;;;;;;5050374;28;20040;-68
2023/01/24 15:26:41;;;;;;;9.88;4.85;;;13.60;87.20;;;;;;5049911;28;20037;-68
2023/01/24 15:29:49;;;;;;;16.27;9.27;;;12.30;86.80;;;;;;5049612;28;20048;-68
2023/01/24 15:32:56;;;;;;;14.05;8.57;;;17.40;90.30;;;;;;5050351;28;20052;-68
2023/01/24 15:36:03;;;;;;;13.70;7.53;;;12.60;88.20;;;;;;5050640;28;20044;-68
2023/01/24 15:39:13;;;;;;;31.38;20.05;;;12.50;87.80;;;;;;5050667;28;20048;-70
2023/01/24 15:45:47;;;;;;;7.38;4.18;;;13.00;87.60;;;;;;5050458;28;20049;-69
2023/01/24 15:49:01;;;;;;;8.48;4.95;;;12.80;86.20;;;;;;5050571;28;20037;-69
2023/01/24 15:52:09;;;;;;;10.07;4.70;;;11.60;85.30;;;;;;5050442;28;20477;-69
2023/01/24 15:55:13;;;;;;;9.10;4.25;;;;;;;;;;5049869;28;20048;-67
2023/01/24 15:58:17;;;;;;;8.93;7.15;;;;;;;;;;5050163;28;20037;-68
2023/01/24 16:01:29;;;;;;;8.90;5.32;;;;;;;;;;5049341;28;20033;-71
2023/01/24 16:04:34;;;;;;;6.90;4.57;;;;;;;;;;5050213;28;20477;-68
2023/01/24 16:07:38;;;;;;;8.00;5.07;;;;;;;;;;5050634;28;20033;-70
2023/01/24 16:10:43;;;;;;;10.93;5.40;;;;;;;;;;5050180;28;20112;-69
2023/01/24 16:13:55;;;;;;;8.50;6.00;;;12.50;86.60;;;;;;5049583;28;20041;-70
2023/01/24 16:17:02;;;;;;;8.25;5.63;;;12.10;86.20;;;;;;5050484;28;20037;-72
2023/01/24 16:20:23;;;;;;;7.05;5.20;;;13.80;87.30;;;;;;5053975;28;20032;-71
2023/01/24 16:23:27;;;;;;;10.40;5.60;;;12.40;87.30;;;;;;5054045;28;20529;-69
2023/01/24 16:26:33;;;;;;;6.78;5.18;;;12.10;86.60;;;;;;5053694;28;20056;-69
2023/01/24 16:29:37;;;;;;;7.50;4.80;;;12.20;86.10;;;;;;5053395;28;20041;-70
2023/01/24 16:32:41;;;;;;;7.70;3.72;;;13.00;85.60;;;;;;5053372;28;20052;-70
2023/01/24 16:35:45;;;;;;;6.20;3.60;;;12.20;85.40;;;;;;5053478;28;20025;-71
2023/01/24 16:38:49;;;;;;;8.38;5.32;;;11.30;85.50;;;;;;5053282;28;20237;-70
2023/01/24 16:41:53;;;;;;;7.07;4.68;;;12.00;86.40;;;;;;5053351;28;20044;-68
2023/01/24 16:44:59;;;;;;;7.97;4.35;;;12.20;87.30;;;;;;5053404;28;20396;-69
2023/01/24 16:48:03;;;;;;;6.18;4.10;;;12.10;87.90;;;;;;5052158;28;20040;-68
2023/01/24 16:51:12;;;;;;;9.57;3.75;;;12.20;87.70;;;;;;5053479;28;20060;-69
2023/01/24 16:54:16;;;;;;;7.72;4.40;;;12.10;87.50;;;;;;5052272;28;20060;-69
2023/01/24 16:57:20;;;;;;;8.05;4.70;;;12.10;87.40;;;;;;5053076;28;20500;-69
2023/01/24 17:00:25;;;;;;;11.35;5.65;;;12.00;87.60;;;;;;5053045;28;20056;-69
2023/01/24 17:03:29;;;;;;;18.85;8.23;;;11.90;88.10;;;;;;5053191;28;20052;-71
2023/01/24 17:06:33;;;;;;;20.25;10.18;;;11.90;88.40;;;;;;5053001;28;20124;-69
2023/01/24 17:09:37;;;;;;;19.80;9.18;;;12.00;88.80;;;;;;5052568;28;20036;-67
2023/01/24 17:12:41;;;;;;;15.95;8.57;;;;;;;;;;5052466;28;20056;-69
2023/01/24 17:15:46;;;;;;;27.05;18.90;;;;;;;;;;5052649;28;20033;-68
2023/01/24 17:18:50;;;;;;;28.40;19.63;;;;;;;;;;5052542;28;20051;-68
2023/01/24 17:21:54;;;;;;;17.20;11.88;;;11.80;88.10;;;;;;5052765;28;20056;-68
2023/01/24 17:24:58;;;;;;;14.73;7.88;;;;;;;;;;5051544;28;20194;-67
2023/01/24 17:28:02;;;;;;;24.05;14.98;;;11.70;88.20;;;;;;5052874;28;20049;-69
2023/01/24 17:31:09;;;;;;;27.90;13.82;;;11.60;88.80;;;;;;5052282;28;20401;-67
2023/01/24 17:34:13;;;;;;;23.75;14.38;;;;;;;;;;5052674;28;20044;-69
2023/01/24 17:37:18;;;;;;;54.05;26.95;;;;;;;;;;5052827;28;20522;-68